createdAt,value
2018-07-26T00:00:26.059Z,70
2018-07-26T00:05:56.595Z,70
2018-07-26T00:11:26.637Z,70
2018-07-26T00:16:56.126Z,70
2018-07-26T00:22:32.099Z,70
2018-07-26T00:27:56.670Z,71
2018-07-26T00:33:26.356Z,71
2018-07-26T00:38:56.005Z,71
2018-07-26T00:44:26.734Z,71
2018-07-26T00:50:01.546Z,71
2018-07-26T00:55:27.525Z,71
2018-07-26T01:00:58.180Z,71
2018-07-26T01:06:27.937Z,71
2018-07-26T01:11:58.664Z,72
2018-07-26T01:17:28.197Z,72
2018-07-26T01:22:59.003Z,72
2018-07-26T01:28:29.720Z,72
2018-07-26T01:34:00.549Z,72
2018-07-26T01:39:31.692Z,72
2018-07-26T01:45:01.116Z,73
2018-07-26T01:50:31.766Z,73
2018-07-26T01:56:01.518Z,73
2018-07-26T02:01:31.397Z,73
2018-07-26T02:07:02.031Z,73
2018-07-26T02:12:37.117Z,74
2018-07-26T02:18:01.820Z,74
2018-07-26T02:23:31.661Z,74
2018-07-26T02:29:06.180Z,74
2018-07-26T02:34:30.807Z,75
2018-07-26T02:40:02.120Z,75
2018-07-26T02:45:37.327Z,75
2018-07-26T02:51:02.098Z,75
2018-07-26T02:56:36.920Z,76
2018-07-26T03:02:03.154Z,76
2018-07-26T03:07:37.491Z,76
2018-07-26T03:13:01.971Z,76
2018-07-26T03:18:32.697Z,76
2018-07-26T03:24:03.403Z,77
2018-07-26T03:29:34.541Z,77
2018-07-26T03:35:04.867Z,77
2018-07-26T03:40:34.605Z,77
2018-07-26T03:46:05.270Z,78
2018-07-26T03:51:40.070Z,78
2018-07-26T03:57:05.041Z,78
2018-07-26T04:02:34.463Z,78
2018-07-26T04:08:05.213Z,78
2018-07-26T04:13:40.204Z,78
2018-07-26T04:19:04.924Z,79
2018-07-26T04:24:34.683Z,79
2018-07-26T04:30:04.171Z,79
2018-07-26T04:35:34.805Z,79
2018-07-26T04:41:05.829Z,79
2018-07-26T04:46:36.266Z,79
2018-07-26T04:52:07.051Z,79
2018-07-26T04:57:41.767Z,79
2018-07-26T05:03:06.525Z,79
2018-07-26T05:08:36.290Z,79
2018-07-26T05:14:06.038Z,80
2018-07-26T05:19:36.817Z,80
2018-07-26T05:25:07.564Z,80
2018-07-26T05:30:37.676Z,80
2018-07-26T05:36:08.148Z,80
2018-07-26T05:41:39.047Z,80
2018-07-26T05:47:09.745Z,80
2018-07-26T05:52:45.645Z,80
2018-07-26T05:58:10.323Z,80
2018-07-26T06:03:46.458Z,80
2018-07-26T06:09:12.006Z,80
2018-07-26T06:14:41.912Z,80
2018-07-26T06:20:12.691Z,80
2018-07-26T06:25:43.676Z,80
2018-07-26T06:31:13.428Z,80
2018-07-26T06:36:49.417Z,80
2018-07-26T06:42:14.422Z,79
2018-07-26T06:47:45.100Z,79
2018-07-26T06:53:15.196Z,79
2018-07-26T07:04:16.021Z,79
2018-07-26T07:09:50.687Z,79
2018-07-26T07:15:15.626Z,78
2018-07-26T07:20:52.401Z,78
2018-07-26T07:26:16.685Z,78
2018-07-26T07:31:46.482Z,78
2018-07-26T07:37:21.376Z,78
2018-07-26T07:42:47.325Z,77
2018-07-26T07:48:22.585Z,77
2018-07-26T07:53:52.290Z,77
2018-07-26T07:59:17.544Z,77
2018-07-26T08:04:48.574Z,77
2018-07-26T08:10:19.503Z,77
2018-07-26T08:15:49.757Z,77
2018-07-26T08:21:19.398Z,76
2018-07-26T08:26:49.460Z,76
2018-07-26T08:32:19.476Z,76
2018-07-26T08:37:49.850Z,76
2018-07-26T08:43:25.751Z,75
2018-07-26T08:48:50.921Z,75
2018-07-26T08:54:20.761Z,75
2018-07-26T08:59:51.196Z,75
2018-07-26T09:05:22.556Z,75
2018-07-26T09:10:53.042Z,75
2018-07-26T09:16:29.197Z,75
2018-07-26T09:21:54.134Z,74
2018-07-26T09:27:25.401Z,74
2018-07-26T09:32:56.781Z,74
2018-07-26T09:38:27.599Z,74
2018-07-26T09:43:58.822Z,73
2018-07-26T09:49:29.869Z,73
2018-07-26T09:55:05.784Z,73
2018-07-26T10:00:35.262Z,72
2018-07-26T10:06:01.592Z,72
2018-07-26T10:11:38.004Z,72
2018-07-26T10:17:08.895Z,71
2018-07-26T10:22:39.087Z,71
2018-07-26T10:28:05.313Z,71
2018-07-26T10:33:36.519Z,70
2018-07-26T10:39:07.805Z,70
2018-07-26T10:44:43.031Z,70
2018-07-26T10:50:09.258Z,70
2018-07-26T10:55:39.581Z,69
2018-07-26T11:01:10.802Z,69
2018-07-26T11:06:41.163Z,68
2018-07-26T11:12:12.370Z,68
2018-07-26T11:17:42.995Z,67
2018-07-26T11:23:12.987Z,67
2018-07-26T11:28:43.602Z,67
2018-07-26T11:34:14.281Z,66
2018-07-26T11:39:45.079Z,66
2018-07-26T11:45:17.149Z,65
2018-07-26T11:50:46.880Z,65
2018-07-26T11:56:16.952Z,64
2018-07-26T12:01:48.386Z,64
2018-07-26T12:01:49.441Z,64
2018-07-26T12:07:18.693Z,63
2018-07-26T12:12:50.406Z,63
2018-07-26T12:12:51.324Z,63
2018-07-26T12:18:21.474Z,63
2018-07-26T12:18:27.913Z,63
2018-07-26T12:23:53.159Z,62
2018-07-26T12:29:23.253Z,62
2018-07-26T12:34:59.943Z,62
2018-07-26T12:40:26.449Z,61
2018-07-26T12:45:56.786Z,61
2018-07-26T12:51:27.184Z,60
2018-07-26T12:56:58.407Z,60
2018-07-26T13:02:30.363Z,60
2018-07-26T13:08:01.450Z,59
2018-07-26T13:08:01.677Z,59
2018-07-26T13:13:34.977Z,59
2018-07-26T13:19:03.223Z,59
2018-07-26T13:24:33.865Z,58
2018-07-26T13:30:10.246Z,58
2018-07-26T13:35:36.779Z,58
2018-07-26T13:41:08.129Z,58
2018-07-26T13:46:38.602Z,57
2018-07-26T13:52:10.397Z,57
2018-07-26T13:57:41.010Z,57
2018-07-26T14:03:16.172Z,57
2018-07-26T14:08:42.673Z,57
2018-07-26T14:14:13.463Z,57
2018-07-26T14:19:44.966Z,57
2018-07-26T14:25:15.364Z,56
2018-07-26T14:30:45.738Z,57
2018-07-26T14:36:17.319Z,56
2018-07-26T14:41:49.038Z,56
2018-07-26T14:47:19.461Z,55
2018-07-26T14:52:50.995Z,55
2018-07-26T14:58:21.535Z,55
2018-07-26T15:03:52.166Z,55
2018-07-26T15:09:23.900Z,55
2018-07-26T15:15:00.326Z,55
2018-07-26T15:20:31.021Z,54
2018-07-26T15:25:57.328Z,54
2018-07-26T15:31:27.936Z,54
2018-07-26T15:36:59.375Z,54
2018-07-26T15:42:30.921Z,54
2018-07-26T15:48:07.540Z,54
2018-07-26T15:53:34.160Z,54
2018-07-26T15:59:04.403Z,54
2018-07-26T16:04:36.025Z,54
2018-07-26T16:10:06.376Z,54
2018-07-26T16:15:37.351Z,54
2018-07-26T16:15:37.948Z,54
2018-07-26T16:21:08.332Z,54
2018-07-26T16:26:39.220Z,54
2018-07-26T16:32:09.597Z,53
2018-07-26T16:37:39.919Z,53
2018-07-26T16:43:10.819Z,54
2018-07-26T16:48:41.360Z,54
2018-07-26T16:54:12.619Z,54
2018-07-26T16:59:48.060Z,54
2018-07-26T17:05:19.272Z,54
2018-07-26T17:10:44.742Z,54
2018-07-26T17:16:15.256Z,55
2018-07-26T17:21:51.678Z,55
2018-07-26T17:27:17.115Z,55
2018-07-26T17:32:47.544Z,55
2018-07-26T17:38:22.927Z,56
2018-07-26T17:43:49.441Z,56
2018-07-26T17:49:18.733Z,56
2018-07-26T17:54:50.290Z,56
2018-07-26T18:00:20.497Z,56
2018-07-26T18:05:50.928Z,56
2018-07-26T18:11:21.529Z,56
2018-07-26T18:16:51.647Z,57
2018-07-26T18:22:23.231Z,57
2018-07-26T18:27:54.330Z,57
2018-07-26T18:33:25.684Z,58
2018-07-26T18:39:01.015Z,58
2018-07-26T18:44:31.309Z,58
2018-07-26T18:49:56.577Z,58
2018-07-26T18:55:26.916Z,58
2018-07-26T19:00:57.392Z,59
2018-07-26T19:06:28.400Z,59
2018-07-26T19:11:59.994Z,59
2018-07-26T19:17:30.470Z,59
2018-07-26T19:23:01.468Z,60
2018-07-26T19:28:31.526Z,60
2018-07-26T19:34:06.874Z,60
2018-07-26T19:39:36.819Z,60
2018-07-26T19:45:02.130Z,61
2018-07-26T19:50:33.182Z,61
2018-07-26T19:56:03.713Z,61
2018-07-26T20:01:39.719Z,62
2018-07-26T20:07:04.858Z,62
2018-07-26T20:12:34.769Z,62
2018-07-26T20:18:05.839Z,62
2018-07-26T20:23:36.692Z,63
2018-07-26T20:29:06.029Z,63
2018-07-26T20:34:42.264Z,63
2018-07-26T20:40:07.371Z,63
2018-07-26T20:45:37.439Z,63
2018-07-26T20:51:07.727Z,64
2018-07-26T20:56:37.419Z,64
2018-07-26T21:02:08.414Z,64
2018-07-26T21:07:39.603Z,64
2018-07-26T21:13:10.701Z,64
2018-07-26T21:18:41.456Z,65
2018-07-26T21:24:17.512Z,65
2018-07-26T21:29:42.551Z,65
2018-07-26T21:35:17.871Z,66
2018-07-26T21:40:42.644Z,66
2018-07-26T21:46:12.461Z,66
2018-07-26T21:51:42.414Z,66
2018-07-26T21:57:17.408Z,67
2018-07-26T22:02:47.392Z,67
2018-07-26T22:08:13.546Z,67
2018-07-26T22:13:50.655Z,67
2018-07-26T22:19:14.246Z,68
2018-07-26T22:24:45.532Z,68
2018-07-26T22:30:15.236Z,68
2018-07-26T22:30:16.173Z,68
2018-07-26T22:35:46.069Z,68
2018-07-26T22:41:17.809Z,69
2018-07-26T22:41:22.000Z,69
2018-07-26T22:46:47.142Z,69
2018-07-26T22:52:18.150Z,69
2018-07-26T22:57:53.737Z,69
2018-07-26T23:03:18.907Z,69
2018-07-26T23:08:49.507Z,69
2018-07-26T23:14:19.432Z,69
2018-07-26T23:19:50.546Z,69
2018-07-26T23:25:21.174Z,69
2018-07-26T23:30:56.240Z,69
2018-07-26T23:36:21.967Z,70
2018-07-26T23:41:52.790Z,70
2018-07-26T23:47:22.615Z,70
2018-07-26T23:52:57.468Z,70
2018-07-26T23:58:23.587Z,70
